Clarksdale, Missouri
Current Conditions -  °F | °C
As of 3:53 AM on Wednesday 26 Nov 2014 (Local Time) from KSTJ Reporting Station
Overcast Overcast  
Wind Chill: 27°   Ceiling: 3500
Heat Index: 35°   Visibility: 10mi
Dew Point: 32°   Wind: 10mph
Humidity: 89%   Direction: 170°S
Pressure: 29.91"   Gusts: NA
Location:  39.81°N, 94.55°W
Report Text: KSTJ 260953Z AUTO 17009KT 10SM BKN035 OVC055 02/00 A2991 RMK AO2 UPB16E19B25E37SNE16 SLP131 P0001 T00170000
Loading
Personal Weather Stations






























Interactive Weather Map New forecast layout! Learn more

10-Day Weather Forecast

Advertisements
Track Severe Weather on mobile